createdAt,value
2018-02-24T00:02:12.581Z,38.47
2018-02-24T00:04:40.180Z,37.63
2018-02-24T00:07:07.878Z,36.60
2018-02-24T00:09:35.519Z,37.40
2018-02-24T00:12:03.198Z,36.77
2018-02-24T00:14:30.863Z,38.07
2018-02-24T00:16:58.444Z,35.63
2018-02-24T00:19:26.095Z,36.53
2018-02-24T00:21:53.769Z,34.50
2018-02-24T00:24:21.399Z,36.63
2018-02-24T00:26:49.029Z,37.30
2018-02-24T00:29:16.706Z,36.37
2018-02-24T00:31:44.616Z,36.80
2018-02-24T00:34:12.258Z,38.53
2018-02-24T00:36:39.955Z,38.33
2018-02-24T00:39:07.608Z,37.37
2018-02-24T00:41:35.250Z,38.67
2018-02-24T00:44:02.919Z,38.13
2018-02-24T00:46:30.552Z,36.53
2018-02-24T00:48:58.195Z,37.07
2018-02-24T00:51:25.875Z,38.90
2018-02-24T00:53:53.508Z,39.77
2018-02-24T00:56:21.134Z,40.20
2018-02-24T00:58:48.821Z,39.27
2018-02-24T01:01:16.447Z,39.77
2018-02-24T01:03:44.072Z,37.53
2018-02-24T01:14:39.168Z,39.90
2018-02-24T01:17:06.803Z,38.30
2018-02-24T01:22:18.203Z,38.90
2018-02-24T01:24:45.830Z,39.30
2018-02-24T01:30:24.770Z,38.70
2018-02-24T01:32:52.469Z,38.20
2018-02-24T01:40:39.717Z,35.63
2018-02-24T01:43:09.792Z,37.63
2018-02-24T01:45:37.426Z,37.27
2018-02-24T01:48:05.055Z,38.50
2018-02-24T01:50:41.611Z,37.13
2018-02-24T01:53:09.261Z,41.23
2018-02-24T01:55:36.902Z,38.00
2018-02-24T01:58:04.604Z,37.07
2018-02-24T02:00:33.928Z,39.07
2018-02-24T02:03:01.560Z,38.90
2018-02-24T02:05:29.238Z,37.20
2018-02-24T02:07:56.873Z,37.37
2018-02-24T02:24:07.791Z,35.97
2018-02-24T02:29:15.004Z,48.08
2018-02-24T02:31:42.696Z,39.50
2018-02-24T02:34:10.335Z,37.77
2018-02-24T02:36:37.959Z,39.33
2018-02-24T02:39:05.645Z,38.97
2018-02-24T02:41:33.287Z,41.53
2018-02-24T02:44:00.914Z,36.83
2018-02-24T02:46:28.601Z,36.63
2018-02-24T02:48:56.237Z,39.83
2018-02-24T02:51:23.894Z,39.67
2018-02-24T02:53:51.590Z,37.40
2018-02-24T02:56:19.212Z,37.27
2018-02-24T02:58:46.843Z,38.67
2018-02-24T03:01:14.982Z,40.00
2018-02-24T03:03:42.606Z,36.47
2018-02-24T03:06:10.232Z,36.83
2018-02-24T03:08:37.939Z,38.20
2018-02-24T03:11:05.576Z,38.80
2018-02-24T03:13:33.204Z,38.10
2018-02-24T03:16:00.900Z,39.17
2018-02-24T03:18:28.531Z,36.77
2018-02-24T03:20:56.157Z,37.70
2018-02-24T03:23:23.898Z,38.40
2018-02-24T03:25:51.532Z,38.63
2018-02-24T03:28:19.173Z,38.93
2018-02-24T03:30:46.873Z,39.70
2018-02-24T03:33:14.507Z,37.03
2018-02-24T03:35:42.135Z,39.67
2018-02-24T03:38:09.828Z,38.90
2018-02-24T03:40:37.457Z,40.53
2018-02-24T03:48:31.198Z,51.67
2018-02-24T03:50:58.888Z,42.57
2018-02-24T03:53:28.455Z,40.63
2018-02-24T03:55:56.084Z,37.80
2018-02-24T03:58:23.772Z,40.43
2018-02-24T04:00:51.398Z,37.20
2018-02-24T04:03:19.039Z,36.87
2018-02-24T04:05:46.709Z,39.43
2018-02-24T04:08:14.355Z,38.30
2018-02-24T04:10:42.004Z,38.07
2018-02-24T04:13:11.311Z,38.90
2018-02-24T04:15:38.952Z,38.70
2018-02-24T04:18:06.588Z,38.47
2018-02-24T04:20:34.266Z,40.27
2018-02-24T04:23:01.895Z,38.23
2018-02-24T04:25:29.531Z,39.47
2018-02-24T04:27:57.214Z,37.60
2018-02-24T04:30:24.848Z,38.97
2018-02-24T04:32:52.484Z,38.83
2018-02-24T04:35:20.172Z,37.90
2018-02-24T04:37:47.799Z,37.90
2018-02-24T04:40:17.352Z,38.07
2018-02-24T04:42:45.038Z,35.07
2018-02-24T04:45:12.675Z,37.27
2018-02-24T04:47:40.303Z,37.47
2018-02-24T04:50:08.010Z,35.93
2018-02-24T04:52:35.638Z,36.43
2018-02-24T04:55:03.266Z,36.27
2018-02-24T04:57:30.960Z,34.97
2018-02-24T04:59:58.590Z,34.93
2018-02-24T05:02:26.221Z,34.27
2018-02-24T05:04:54.211Z,35.00
2018-02-24T05:07:21.848Z,36.30
2018-02-24T05:12:28.637Z,46.78
2018-02-24T05:14:56.282Z,36.83
2018-02-24T05:17:23.915Z,35.93
2018-02-24T05:19:51.596Z,36.30
2018-02-24T05:22:19.223Z,36.60
2018-02-24T05:24:46.851Z,39.00
2018-02-24T05:27:14.531Z,36.47
2018-02-24T05:29:42.153Z,37.60
2018-02-24T05:32:11.551Z,38.23
2018-02-24T05:34:39.256Z,38.80
2018-02-24T05:37:06.882Z,37.97
2018-02-24T05:39:34.521Z,36.03
2018-02-24T05:42:02.200Z,36.97
2018-02-24T05:44:29.846Z,35.83
2018-02-24T05:46:57.473Z,36.77
2018-02-24T05:49:25.178Z,36.53
2018-02-24T05:51:52.812Z,38.93
2018-02-24T05:54:20.450Z,40.20
2018-02-24T05:56:48.151Z,36.57
2018-02-24T05:59:15.763Z,36.57
2018-02-24T06:01:43.419Z,38.33
2018-02-24T06:04:11.099Z,39.93
2018-02-24T06:06:38.733Z,37.60
2018-02-24T06:09:06.366Z,40.87
2018-02-24T06:11:34.059Z,39.67
2018-02-24T06:14:01.695Z,40.97
2018-02-24T06:16:29.316Z,40.67
2018-02-24T06:18:57.000Z,36.27
2018-02-24T06:21:24.632Z,39.80
2018-02-24T06:23:52.258Z,40.07
2018-02-24T06:28:59.525Z,53.03
2018-02-24T06:31:27.208Z,44.87
2018-02-24T06:33:54.846Z,40.87
2018-02-24T06:36:22.476Z,41.70
2018-02-24T06:38:50.180Z,39.47
2018-02-24T06:41:17.800Z,38.93
2018-02-24T06:43:45.444Z,40.50
2018-02-24T06:46:13.130Z,40.50
2018-02-24T06:48:40.764Z,37.47
2018-02-24T06:51:08.396Z,42.73
2018-02-24T06:53:37.048Z,39.17
2018-02-24T06:56:04.679Z,41.10
2018-02-24T06:58:32.336Z,36.40
2018-02-24T07:01:00.042Z,39.43
2018-02-24T07:03:27.657Z,38.13
2018-02-24T07:05:55.694Z,35.50
2018-02-24T07:08:25.264Z,38.23
2018-02-24T07:10:51.012Z,38.63
2018-02-24T07:13:21.851Z,38.57
2018-02-24T07:15:49.537Z,39.70
2018-02-24T07:18:17.187Z,37.30
2018-02-24T07:20:44.808Z,38.87
2018-02-24T07:23:12.488Z,37.37
2018-02-24T07:25:40.117Z,36.23
2018-02-24T07:28:07.744Z,37.20
2018-02-24T07:30:35.436Z,37.07
2018-02-24T07:33:03.066Z,36.37
2018-02-24T07:35:30.699Z,35.37
2018-02-24T07:37:58.383Z,36.40
2018-02-24T07:40:26.010Z,34.90
2018-02-24T07:42:53.645Z,36.53
2018-02-24T07:45:21.331Z,40.93
2018-02-24T07:47:48.960Z,34.17
2018-02-24T07:50:16.651Z,34.00
2018-02-24T07:55:23.439Z,45.03
2018-02-24T07:57:51.407Z,34.47
2018-02-24T08:00:19.051Z,34.60
2018-02-24T08:02:48.455Z,32.87
2018-02-24T08:05:16.154Z,30.27
2018-02-24T08:07:43.808Z,31.80
2018-02-24T08:10:11.447Z,35.00
2018-02-24T08:12:39.141Z,35.27
2018-02-24T08:15:06.762Z,34.67
2018-02-24T08:17:34.420Z,32.77
2018-02-24T08:20:02.086Z,34.20
2018-02-24T08:22:29.740Z,31.90
2018-02-24T08:24:57.367Z,32.20
2018-02-24T08:27:25.062Z,32.47
2018-02-24T08:29:52.686Z,29.37
2018-02-24T08:32:20.335Z,30.20
2018-02-24T08:34:48.031Z,29.93
2018-02-24T08:37:15.673Z,26.83
2018-02-24T08:39:43.301Z,29.57
2018-02-24T08:42:10.991Z,30.83
2018-02-24T08:44:42.907Z,31.13
2018-02-24T08:47:10.598Z,29.70
2018-02-24T08:49:38.241Z,31.63
2018-02-24T08:52:05.897Z,28.00
2018-02-24T08:54:33.585Z,26.80
2018-02-24T08:57:01.227Z,28.10
2018-02-24T08:59:28.854Z,28.90
2018-02-24T09:01:56.574Z,29.60
2018-02-24T09:04:24.182Z,26.67
2018-02-24T09:06:51.804Z,25.87
2018-02-24T09:09:19.499Z,29.13
2018-02-24T09:11:47.124Z,28.23
2018-02-24T09:14:14.799Z,26.77
2018-02-24T09:19:21.587Z,36.53
2018-02-24T09:21:49.268Z,31.37
2018-02-24T09:24:16.901Z,28.27
2018-02-24T09:26:44.522Z,29.33
2018-02-24T09:29:12.209Z,30.07
2018-02-24T09:31:39.831Z,24.67
2018-02-24T09:34:07.454Z,30.57
2018-02-24T09:36:35.140Z,28.57
2018-02-24T09:39:02.784Z,28.60
2018-02-24T09:41:30.408Z,28.90
2018-02-24T09:43:58.092Z,28.00
2018-02-24T09:46:25.711Z,27.10
2018-02-24T09:48:53.350Z,29.57
2018-02-24T09:51:21.044Z,21.73
2018-02-24T09:53:48.675Z,22.43
2018-02-24T09:56:16.298Z,25.73
2018-02-24T09:58:43.995Z,26.90
2018-02-24T10:01:11.595Z,28.53
2018-02-24T10:03:39.236Z,27.33
2018-02-24T10:06:06.920Z,24.67
2018-02-24T10:08:34.551Z,28.87
2018-02-24T10:11:02.179Z,24.93
2018-02-24T10:13:29.854Z,21.30
2018-02-24T10:15:57.483Z,21.70
2018-02-24T10:18:25.101Z,26.67
2018-02-24T10:20:52.797Z,24.37
2018-02-24T10:23:20.424Z,26.57
2018-02-24T10:25:48.063Z,27.73
2018-02-24T10:28:16.196Z,26.43
2018-02-24T10:30:43.819Z,25.70
2018-02-24T10:33:11.466Z,24.80
2018-02-24T10:35:39.145Z,26.20
2018-02-24T10:40:45.952Z,36.28
2018-02-24T10:43:13.588Z,28.80
2018-02-24T10:45:41.218Z,28.47
2018-02-24T10:48:08.912Z,30.33
2018-02-24T10:50:36.538Z,21.97
2018-02-24T10:53:04.636Z,29.13
2018-02-24T10:55:32.318Z,28.07
2018-02-24T10:57:59.947Z,30.70
2018-02-24T11:00:27.570Z,29.70
2018-02-24T11:02:55.254Z,31.37
2018-02-24T11:05:25.965Z,23.97
2018-02-24T11:07:53.593Z,26.73
2018-02-24T11:10:21.271Z,28.90
2018-02-24T11:12:48.901Z,28.43
2018-02-24T11:15:16.530Z,25.27
2018-02-24T11:17:44.224Z,25.93
2018-02-24T11:20:11.836Z,22.77
2018-02-24T11:22:39.464Z,24.20
2018-02-24T11:25:07.160Z,25.80
2018-02-24T11:27:34.789Z,23.80
2018-02-24T11:30:02.434Z,23.33
2018-02-24T11:32:30.112Z,24.47
2018-02-24T11:34:57.730Z,26.93
2018-02-24T11:37:25.363Z,27.97
2018-02-24T11:39:53.048Z,24.67
2018-02-24T11:42:20.683Z,24.67
2018-02-24T11:44:48.319Z,24.73
2018-02-24T11:47:16.003Z,23.67
2018-02-24T11:49:43.643Z,24.50
2018-02-24T11:52:11.268Z,25.63
2018-02-24T11:54:42.103Z,23.03
2018-02-24T11:57:09.735Z,24.53
2018-02-24T11:59:37.370Z,23.07
2018-02-24T12:04:44.162Z,29.92
2018-02-24T12:07:11.839Z,26.77
2018-02-24T12:09:39.465Z,24.73
2018-02-24T12:12:08.153Z,21.70
2018-02-24T12:14:35.852Z,23.70
2018-02-24T12:17:03.465Z,22.83
2018-02-24T12:19:31.091Z,23.13
2018-02-24T12:21:58.772Z,24.40
2018-02-24T12:24:26.397Z,23.10
2018-02-24T12:26:54.031Z,23.63
2018-02-24T12:29:21.718Z,24.87
2018-02-24T12:31:49.336Z,23.23
2018-02-24T12:34:16.964Z,23.50
2018-02-24T12:36:44.644Z,22.73
2018-02-24T12:39:12.262Z,22.87
2018-02-24T12:41:39.882Z,25.30
2018-02-24T12:44:07.563Z,22.43
2018-02-24T12:46:35.252Z,22.93
2018-02-24T12:49:02.832Z,23.13
2018-02-24T12:51:30.505Z,22.60
2018-02-24T12:53:58.136Z,24.30
2018-02-24T12:56:25.758Z,24.07
2018-02-24T12:58:53.435Z,24.77
2018-02-24T13:01:21.066Z,22.30
2018-02-24T13:03:49.028Z,22.30
2018-02-24T13:06:16.716Z,21.70
2018-02-24T13:08:44.358Z,22.60
2018-02-24T13:11:11.977Z,21.87
2018-02-24T13:13:39.665Z,21.47
2018-02-24T13:16:07.287Z,22.03
2018-02-24T13:18:34.920Z,23.43
2018-02-24T13:21:02.611Z,25.43
2018-02-24T13:26:09.384Z,32.17
2018-02-24T13:28:37.042Z,28.00
2018-02-24T13:33:45.356Z,32.30
2018-02-24T13:36:12.975Z,27.87
2018-02-24T13:38:40.604Z,27.00
2018-02-24T13:41:08.370Z,26.27
2018-02-24T13:43:35.990Z,25.77
2018-02-24T13:46:03.622Z,27.67
2018-02-24T13:48:31.456Z,29.57
2018-02-24T13:50:59.091Z,26.83
2018-02-24T13:53:26.724Z,27.93
2018-02-24T13:55:54.414Z,26.40
2018-02-24T13:58:22.031Z,25.27
2018-02-24T14:00:49.664Z,26.53
2018-02-24T14:03:17.338Z,26.23
2018-02-24T14:05:44.978Z,25.03
2018-02-24T14:08:12.596Z,23.73
2018-02-24T14:10:40.295Z,26.73
2018-02-24T14:13:07.969Z,25.83
2018-02-24T14:15:36.915Z,22.67
2018-02-24T14:18:04.599Z,25.23
2018-02-24T14:20:32.231Z,25.63
2018-02-24T14:22:59.864Z,26.20
2018-02-24T14:28:08.132Z,34.58
2018-02-24T14:30:35.816Z,28.27
2018-02-24T14:33:03.447Z,28.07
2018-02-24T14:35:31.078Z,27.07
2018-02-24T14:37:58.765Z,26.17
2018-02-24T14:40:26.391Z,22.47
2018-02-24T14:42:54.020Z,26.00
2018-02-24T14:45:21.701Z,27.83
2018-02-24T14:47:49.324Z,27.23
2018-02-24T14:50:16.966Z,27.70
2018-02-24T14:52:44.651Z,29.67
2018-02-24T14:55:12.286Z,28.17
2018-02-24T14:57:39.915Z,26.53
2018-02-24T15:00:07.608Z,30.73
2018-02-24T15:02:35.246Z,28.87
2018-02-24T15:05:02.862Z,30.17
2018-02-24T15:07:31.060Z,28.40
2018-02-24T15:09:58.684Z,30.73
2018-02-24T15:12:26.311Z,30.07
2018-02-24T15:14:54.010Z,34.73
2018-02-24T15:17:21.647Z,28.43
2018-02-24T15:19:49.267Z,25.63
2018-02-24T15:22:16.943Z,27.90
2018-02-24T15:24:45.272Z,30.97
2018-02-24T15:27:12.792Z,27.97
2018-02-24T15:29:43.444Z,31.97
2018-02-24T15:32:11.061Z,28.53
2018-02-24T15:34:42.396Z,30.47
2018-02-24T15:37:10.980Z,30.60
2018-02-24T15:39:38.614Z,29.27
2018-02-24T15:42:06.238Z,31.80
2018-02-24T15:44:33.923Z,31.97
2018-02-24T15:47:01.554Z,26.40
2018-02-24T15:52:12.946Z,30.10
2018-02-24T15:57:19.716Z,41.03
2018-02-24T15:59:47.364Z,31.67
2018-02-24T16:02:14.991Z,30.80
2018-02-24T16:04:42.674Z,31.10
2018-02-24T16:07:10.296Z,30.97
2018-02-24T16:09:37.930Z,31.50
2018-02-24T16:12:05.599Z,28.73
2018-02-24T16:14:33.232Z,31.50
2018-02-24T16:17:00.849Z,28.40
2018-02-24T16:19:28.540Z,32.00
2018-02-24T16:21:56.183Z,30.20
2018-02-24T16:24:23.808Z,30.40
2018-02-24T16:29:30.294Z,39.05
2018-02-24T16:31:57.992Z,32.10
2018-02-24T16:34:25.616Z,30.73
2018-02-24T16:36:53.438Z,31.40
2018-02-24T16:39:21.115Z,33.80
2018-02-24T16:41:48.771Z,29.50
2018-02-24T16:44:18.414Z,31.10
2018-02-24T16:46:44.105Z,31.20
2018-02-24T16:51:44.051Z,31.80
2018-02-24T16:54:11.802Z,31.27
2018-02-24T16:56:39.440Z,30.23
2018-02-24T16:59:07.079Z,31.03
2018-02-24T17:01:34.819Z,29.70
2018-02-24T17:04:02.449Z,31.70
2018-02-24T17:06:30.385Z,32.23
2018-02-24T17:08:58.077Z,29.63
2018-02-24T17:11:25.770Z,29.80
2018-02-24T17:16:32.216Z,39.38
2018-02-24T17:18:59.845Z,34.00
2018-02-24T17:21:27.477Z,31.07
2018-02-24T17:23:55.165Z,29.30
2018-02-24T17:26:22.800Z,29.97
2018-02-24T17:28:50.447Z,27.03
2018-02-24T17:31:18.154Z,28.20
2018-02-24T17:33:45.801Z,27.23
2018-02-24T17:36:13.437Z,34.13
2018-02-24T17:38:41.150Z,30.40
2018-02-24T17:41:08.788Z,29.50
2018-02-24T17:43:36.483Z,29.90
2018-02-24T17:46:04.166Z,28.03
2018-02-24T17:48:31.815Z,29.00
2018-02-24T17:50:59.455Z,29.53
2018-02-24T17:53:27.147Z,31.57
2018-02-24T17:55:54.784Z,35.47
2018-02-24T17:58:22.411Z,30.83
2018-02-24T18:00:50.115Z,26.27
2018-02-24T18:03:17.757Z,28.00
2018-02-24T18:05:45.388Z,21.23
2018-02-24T18:08:13.081Z,27.40
2018-02-24T18:10:40.735Z,29.80
2018-02-24T18:13:08.369Z,31.90
2018-02-24T18:15:36.071Z,30.57
2018-02-24T18:18:03.700Z,27.93
2018-02-24T18:20:32.106Z,24.10
2018-02-24T18:22:59.837Z,28.13
2018-02-24T18:25:27.452Z,26.67
2018-02-24T18:27:55.056Z,30.30
2018-02-24T18:30:22.759Z,26.70
2018-02-24T18:32:50.394Z,24.60
2018-02-24T18:37:57.171Z,36.88
2018-02-24T18:40:24.801Z,29.80
2018-02-24T18:42:52.438Z,25.80
2018-02-24T18:45:20.145Z,30.10
2018-02-24T18:47:47.837Z,23.10
2018-02-24T18:50:15.481Z,24.00
2018-02-24T18:52:43.139Z,25.07
2018-02-24T18:55:10.893Z,21.90
2018-02-24T18:57:38.475Z,25.17
2018-02-24T19:00:06.114Z,24.97
2018-02-24T19:02:33.821Z,24.83
2018-02-24T19:05:01.454Z,20.47
2018-02-24T19:07:29.100Z,20.93
2018-02-24T19:09:56.801Z,26.83
2018-02-24T19:12:24.448Z,24.30
2018-02-24T19:14:52.116Z,24.00
2018-02-24T19:17:19.788Z,24.00
2018-02-24T19:19:47.410Z,24.30
2018-02-24T19:22:15.101Z,18.80
2018-02-24T19:24:42.714Z,22.43
2018-02-24T19:29:42.255Z,26.00
2018-02-24T19:32:09.327Z,24.43
2018-02-24T19:34:37.427Z,23.23
2018-02-24T19:37:04.538Z,17.17
2018-02-24T19:39:31.610Z,15.57
2018-02-24T19:41:58.654Z,20.20
2018-02-24T19:44:25.760Z,18.40
2018-02-24T19:46:52.810Z,18.93
2018-02-24T19:49:20.084Z,18.77
2018-02-24T19:51:47.188Z,20.47
2018-02-24T19:56:52.490Z,24.37
2018-02-24T19:59:19.809Z,20.17
2018-02-24T20:01:46.811Z,18.13
2018-02-24T20:04:14.440Z,17.47
2018-02-24T20:06:41.476Z,16.80
2018-02-24T20:09:08.534Z,16.00
2018-02-24T20:11:35.572Z,17.57
2018-02-24T20:14:02.673Z,17.00
2018-02-24T20:16:29.919Z,17.23
2018-02-24T20:18:56.978Z,20.37
2018-02-24T20:21:24.083Z,17.40
2018-02-24T20:23:51.134Z,18.20
2018-02-24T20:26:18.183Z,18.00
2018-02-24T20:28:45.276Z,18.50
2018-02-24T20:31:12.358Z,16.90
2018-02-24T20:33:39.466Z,19.17
2018-02-24T20:36:06.573Z,12.00
2018-02-24T20:38:34.372Z,14.70
2018-02-24T20:43:41.770Z,20.90
2018-02-24T20:46:08.850Z,15.03
2018-02-24T20:48:36.130Z,16.37
2018-02-24T20:51:03.219Z,16.23
2018-02-24T20:53:30.304Z,18.17
2018-02-24T20:55:57.362Z,15.80
2018-02-24T20:58:24.475Z,12.33
2018-02-24T21:00:51.532Z,13.40
2018-02-24T21:03:18.583Z,16.93
2018-02-24T21:05:45.711Z,14.20
2018-02-24T21:08:12.796Z,17.37
2018-02-24T21:10:39.870Z,13.37
2018-02-24T21:15:45.183Z,19.73
2018-02-24T21:18:12.362Z,17.70
2018-02-24T21:20:39.380Z,17.30
2018-02-24T21:25:44.780Z,20.30
2018-02-24T21:28:11.836Z,19.13
2018-02-24T21:30:38.968Z,16.40
2018-02-24T21:33:06.179Z,17.13
2018-02-24T21:35:33.279Z,18.63
2018-02-24T21:38:00.871Z,16.73
2018-02-24T21:40:28.606Z,14.83
2018-02-24T21:42:55.663Z,19.70
2018-02-24T21:45:22.739Z,16.30
2018-02-24T21:47:50.264Z,16.80
2018-02-24T21:50:17.316Z,16.33
2018-02-24T21:52:44.382Z,15.03
2018-02-24T21:55:11.529Z,17.53
2018-02-24T21:57:38.554Z,15.87
2018-02-24T22:00:05.691Z,15.17
2018-02-24T22:02:32.754Z,16.40
2018-02-24T22:04:59.829Z,16.13
2018-02-24T22:07:26.912Z,16.90
2018-02-24T22:09:54.046Z,16.70
2018-02-24T22:12:21.099Z,18.93
2018-02-24T22:14:48.159Z,16.97
2018-02-24T22:17:15.293Z,16.97
2018-02-24T22:19:42.348Z,16.47
2018-02-24T22:22:09.396Z,16.07
2018-02-24T22:24:36.794Z,15.40
2018-02-24T22:27:04.003Z,16.20
2018-02-24T22:29:31.016Z,16.90
2018-02-24T22:31:58.147Z,15.03
2018-02-24T22:34:25.222Z,16.03
2018-02-24T22:36:52.277Z,15.10
2018-02-24T22:39:19.380Z,16.83
2018-02-24T22:41:51.940Z,17.43
2018-02-24T22:44:19.021Z,15.23
2018-02-24T22:46:46.123Z,18.03
2018-02-24T22:51:51.824Z,21.52
2018-02-24T22:54:18.885Z,18.27
2018-02-24T22:56:46.079Z,15.50
2018-02-24T22:59:13.558Z,15.67
2018-02-24T23:01:40.603Z,14.43
2018-02-24T23:04:07.691Z,16.57
2018-02-24T23:06:34.881Z,14.23
2018-02-24T23:09:02.242Z,16.27
2018-02-24T23:11:29.298Z,17.87
2018-02-24T23:13:56.423Z,18.63
2018-02-24T23:16:23.487Z,14.40
2018-02-24T23:18:50.550Z,15.63
2018-02-24T23:21:18.156Z,17.33
2018-02-24T23:23:45.913Z,16.00
2018-02-24T23:28:54.094Z,20.55
2018-02-24T23:31:24.978Z,17.23
2018-02-24T23:33:54.933Z,18.47
2018-02-24T23:36:21.503Z,12.73
2018-02-24T23:38:48.550Z,16.10
2018-02-24T23:41:15.594Z,17.40
2018-02-24T23:43:43.247Z,16.87
2018-02-24T23:46:10.298Z,15.37
2018-02-24T23:48:38.005Z,16.10
2018-02-24T23:51:05.192Z,17.93
2018-02-24T23:53:32.804Z,14.77
2018-02-24T23:55:59.853Z,15.40
2018-02-24T23:58:26.958Z,13.33
